Check out our new PWSWeather beta!
PWSweather.com
Personal Weather Stations
Station Observations
21805
Centre Of Ekeren, AntwerpBE

Centre Of EkerenAntwerpBE

Lat: 51.28072820000001, Lon: 4.420431000000008

Elevation: 12

Station Type: Davis VP Pro II

http://www.akker.be/template/

Latest ConditionsUpdated 10:50:37 PM GMT+01:01 Monday, Feb 24, 2020
Currently Today's Max Today's Min Today's Average
Temperature 51.2°F10.7°C 54.4°F12.4°C 41.6°F5.3°C 47.5°F8.6°C
Dew Point 47.5°F8.6°C 49.5°F9.7°C 34.3°F1.3°C 41.5°F5.3°C
Winds 5.8 mph SW9.3 kmh SW 14.9 mph -24.0 kmh - - 4.1 mph 6.6 kmh
Wind Gusts 14.9 mph24.0 kmh 29.9 mph48.1 kmh - -
Humidity 87% 91% 68% 80%
Pressure 29.69 in1005.4 mb 30.28 in1025.4 mb 29.69 in1005.4 mb -
Precipitation - 0.21 in5.3 mm - -
Hour Temp Dew Point Humidity Winds Wind Gusts Pressure Precip Precip Rate Daily Precip Total
10:50 PM 51.2°F10.7°C 47.5°F8.6°C 87% 5.8 mph SW9.3 kmh SW 14.9 mph24.0 kmh 29.69 in1005.4 mb - 0.20 in5.1 mm 0.21 in5.3 mm
10:45 PM 51.4°F10.8°C 47.4°F8.6°C 86% 4.6 mph SW7.4 kmh SW 11.5 mph18.5 kmh 29.69 in1005.4 mb - 0.20 in5.1 mm 0.21 in5.3 mm
10:39 PM 51.4°F10.8°C 47.4°F8.6°C 86% 5.8 mph SSW9.3 kmh SSW 11.5 mph18.5 kmh 29.69 in1005.4 mb - 0.20 in5.1 mm 0.21 in5.3 mm
10:33 PM 51.6°F10.9°C 47.2°F8.4°C 85% Calm Calm -- 29.70 in1005.8 mb - 0.20 in5.1 mm 0.21 in5.3 mm
10:28 PM 51.7°F10.9°C 47.3°F8.5°C 85% 4.6 mph SW7.4 kmh SW 10.3 mph16.6 kmh 29.70 in1005.8 mb - 0.20 in5.1 mm 0.20 in5.1 mm
10:22 PM 51.9°F11.1°C 47.2°F8.4°C 84% 3.4 mph SSW5.5 kmh SSW 11.5 mph18.5 kmh 29.70 in1005.8 mb - 0.20 in5.1 mm 0.20 in5.1 mm
10:16 PM 52.0°F11.1°C 47.3°F8.5°C 84% Calm Calm 11.5 mph18.5 kmh 29.70 in1005.8 mb - 0.20 in5.1 mm 0.20 in5.1 mm
10:11 PM 52.1°F11.2°C 47.4°F8.6°C 84% 4.6 mph SW7.4 kmh SW 10.3 mph16.6 kmh 29.70 in1005.8 mb - 0.20 in5.1 mm 0.20 in5.1 mm
10:05 PM 52.2°F11.2°C 47.2°F8.4°C 83% 4.6 mph SW7.4 kmh SW 11.5 mph18.5 kmh 29.70 in1005.8 mb - 0.20 in5.1 mm 0.20 in5.1 mm
10:00 PM 52.2°F11.2°C 47.2°F8.4°C 83% 6.9 mph SW11.1 kmh SW 14.9 mph24.0 kmh 29.71 in1006.1 mb - 0.20 in5.1 mm 0.20 in5.1 mm
09:54 PM 52.1°F11.2°C 47.1°F8.4°C 83% 2.3 mph SSW3.7 kmh SSW 4.6 mph7.4 kmh 29.70 in1005.8 mb - 0.20 in5.1 mm 0.20 in5.1 mm
09:48 PM 52.1°F11.2°C 47.1°F8.4°C 83% 3.4 mph SW5.5 kmh SW 11.5 mph18.5 kmh 29.70 in1005.8 mb - 0.20 in5.1 mm 0.20 in5.1 mm
09:43 PM 52.1°F11.2°C 47.1°F8.4°C 83% 1.1 mph SW1.8 kmh SW 11.5 mph18.5 kmh 29.70 in1005.8 mb - 0.20 in5.1 mm 0.20 in5.1 mm
09:37 PM 52.1°F11.2°C 47.1°F8.4°C 83% 3.4 mph SW5.5 kmh SW 10.3 mph16.6 kmh 29.70 in1005.8 mb - 0.20 in5.1 mm 0.20 in5.1 mm
09:31 PM 52.1°F11.2°C 47.1°F8.4°C 83% 2.3 mph SSW3.7 kmh SSW 13.8 mph22.2 kmh 29.70 in1005.8 mb - 0.20 in5.1 mm 0.20 in5.1 mm
09:26 PM 52.1°F11.2°C 47.1°F8.4°C 83% 1.1 mph SSW1.8 kmh SSW 1.1 mph1.8 kmh 29.70 in1005.8 mb - 0.20 in5.1 mm 0.20 in5.1 mm
09:20 PM 52.1°F11.2°C 47.1°F8.4°C 83% 9.2 mph SSW14.8 kmh SSW 17.3 mph27.8 kmh 29.70 in1005.8 mb - 0.20 in5.1 mm 0.20 in5.1 mm
09:15 PM 52.1°F11.2°C 47.1°F8.4°C 83% 8.0 mph SW12.9 kmh SW 17.3 mph27.8 kmh 29.70 in1005.8 mb - 0.20 in5.1 mm 0.20 in5.1 mm
09:09 PM 52.1°F11.2°C 47.1°F8.4°C 83% 10.3 mph SSW16.6 kmh SSW 18.4 mph29.6 kmh 29.71 in1006.1 mb - 0.20 in5.1 mm 0.20 in5.1 mm
09:03 PM 52.2°F11.2°C 47.2°F8.4°C 83% 9.2 mph SW14.8 kmh SW 19.5 mph31.4 kmh 29.71 in1006.1 mb - 0.20 in5.1 mm 0.20 in5.1 mm
08:58 PM 52.2°F11.2°C 46.9°F8.3°C 82% 8.0 mph SW12.9 kmh SW 13.8 mph22.2 kmh 29.71 in1006.1 mb - 0.20 in5.1 mm 0.20 in5.1 mm
08:52 PM 52.2°F11.2°C 46.9°F8.3°C 82% 6.9 mph SW11.1 kmh SW 17.3 mph27.8 kmh 29.71 in1006.1 mb - 0.20 in5.1 mm 0.20 in5.1 mm
08:46 PM 52.2°F11.2°C 46.9°F8.3°C 82% 8.0 mph SW12.9 kmh SW 13.8 mph22.2 kmh 29.71 in1006.1 mb - 0.20 in5.1 mm 0.20 in5.1 mm
08:41 PM 52.1°F11.2°C 46.8°F8.2°C 82% 9.2 mph SW14.8 kmh SW 16.1 mph25.9 kmh 29.71 in1006.1 mb - 0.20 in5.1 mm 0.20 in5.1 mm
08:35 PM 52.1°F11.2°C 46.8°F8.2°C 82% 2.3 mph SW3.7 kmh SW 13.8 mph22.2 kmh 29.71 in1006.1 mb - 0.20 in5.1 mm 0.20 in5.1 mm
08:30 PM 52.1°F11.2°C 46.7°F8.2°C 82% 1.1 mph SSW1.8 kmh SSW 11.5 mph18.5 kmh 29.71 in1006.1 mb - 0.20 in5.1 mm 0.20 in5.1 mm
08:24 PM 52.0°F11.1°C 46.7°F8.2°C 82% 3.4 mph SW5.5 kmh SW 4.6 mph7.4 kmh 29.72 in1006.4 mb - 0.20 in5.1 mm 0.20 in5.1 mm
08:18 PM 52.0°F11.1°C 46.7°F8.2°C 82% 3.4 mph SW5.5 kmh SW 10.3 mph16.6 kmh 29.72 in1006.4 mb - 0.20 in5.1 mm 0.20 in5.1 mm
08:13 PM 52.0°F11.1°C 46.7°F8.2°C 82% 9.2 mph SSW14.8 kmh SSW 14.9 mph24.0 kmh 29.72 in1006.4 mb - 0.20 in5.1 mm 0.20 in5.1 mm
08:07 PM 52.0°F11.1°C 46.7°F8.2°C 82% 3.4 mph SSW5.5 kmh SSW 10.3 mph16.6 kmh 29.72 in1006.4 mb - 0.20 in5.1 mm 0.20 in5.1 mm
08:01 PM 52.0°F11.1°C 46.7°F8.2°C 82% 2.3 mph SW3.7 kmh SW 11.5 mph18.5 kmh 29.72 in1006.4 mb - 0.20 in5.1 mm 0.20 in5.1 mm
07:56 PM 51.9°F11.1°C 46.6°F8.1°C 82% 4.6 mph SW7.4 kmh SW 14.9 mph24.0 kmh 29.72 in1006.4 mb - 0.20 in5.1 mm 0.20 in5.1 mm
07:50 PM 51.9°F11.1°C 46.6°F8.1°C 82% 9.2 mph SSW14.8 kmh SSW 19.5 mph31.4 kmh 29.72 in1006.4 mb - 0.20 in5.1 mm 0.20 in5.1 mm
07:45 PM 51.9°F11.1°C 46.6°F8.1°C 82% 3.4 mph SSW5.5 kmh SSW 23.0 mph37.0 kmh 29.72 in1006.4 mb - 0.20 in5.1 mm 0.20 in5.1 mm
07:39 PM 51.8°F11.0°C 46.5°F8.1°C 82% 6.9 mph SSW11.1 kmh SSW 18.4 mph29.6 kmh 29.73 in1006.8 mb - 0.20 in5.1 mm 0.20 in5.1 mm
07:33 PM 51.8°F11.0°C 46.8°F8.2°C 83% 4.6 mph SSW7.4 kmh SSW 11.5 mph18.5 kmh 29.73 in1006.8 mb - 0.20 in5.1 mm 0.20 in5.1 mm
07:28 PM 51.8°F11.0°C 46.5°F8.1°C 82% 9.2 mph SSW14.8 kmh SSW 19.5 mph31.4 kmh 29.73 in1006.8 mb - 0.20 in5.1 mm 0.20 in5.1 mm
07:22 PM 51.8°F11.0°C 46.8°F8.2°C 83% 8.0 mph SSW12.9 kmh SSW 13.8 mph22.2 kmh 29.74 in1007.1 mb - 0.20 in5.1 mm 0.20 in5.1 mm
07:16 PM 51.7°F10.9°C 46.7°F8.2°C 83% 8.0 mph SSW12.9 kmh SSW 10.3 mph16.6 kmh 29.74 in1007.1 mb - 0.20 in5.1 mm 0.20 in5.1 mm
07:11 PM 51.7°F10.9°C 46.7°F8.2°C 83% 8.0 mph SW12.9 kmh SW 18.4 mph29.6 kmh 29.73 in1006.8 mb - 0.20 in5.1 mm 0.20 in5.1 mm
07:05 PM 51.6°F10.9°C 46.6°F8.1°C 83% Calm Calm -- 29.73 in1006.8 mb - 0.20 in5.1 mm 0.20 in5.1 mm
07:00 PM 51.5°F10.8°C 46.6°F8.1°C 83% 3.4 mph SW5.5 kmh SW 10.3 mph16.6 kmh 29.74 in1007.1 mb - 0.20 in5.1 mm 0.20 in5.1 mm
06:54 PM 51.4°F10.8°C 46.7°F8.2°C 84% 8.0 mph SW12.9 kmh SW 11.5 mph18.5 kmh 29.74 in1007.1 mb - 0.20 in5.1 mm 0.20 in5.1 mm
06:48 PM 51.3°F10.7°C 46.6°F8.1°C 84% 9.2 mph SW14.8 kmh SW 19.5 mph31.4 kmh 29.73 in1006.8 mb - 0.20 in5.1 mm 0.20 in5.1 mm
06:43 PM 51.3°F10.7°C 46.6°F8.1°C 84% 6.9 mph SW11.1 kmh SW 16.1 mph25.9 kmh 29.73 in1006.8 mb - 0.20 in5.1 mm 0.20 in5.1 mm
06:37 PM 51.2°F10.7°C 46.5°F8.1°C 84% 5.8 mph SSW9.3 kmh SSW 23.0 mph37.0 kmh 29.73 in1006.8 mb - 0.20 in5.1 mm 0.20 in5.1 mm
06:31 PM 51.2°F10.7°C 46.8°F8.2°C 85% 9.2 mph SW14.8 kmh SW 26.4 mph42.5 kmh 29.72 in1006.4 mb - 0.20 in5.1 mm 0.20 in5.1 mm
06:26 PM 51.1°F10.6°C 46.7°F8.2°C 85% 6.9 mph SSW11.1 kmh SSW 14.9 mph24.0 kmh 29.73 in1006.8 mb - 0.20 in5.1 mm 0.20 in5.1 mm
06:20 PM 51.0°F10.6°C 46.6°F8.1°C 85% 6.9 mph SSW11.1 kmh SSW 14.9 mph24.0 kmh 29.72 in1006.4 mb - 0.20 in5.1 mm 0.20 in5.1 mm
06:15 PM 51.0°F10.6°C 46.6°F8.1°C 85% 8.0 mph SSW12.9 kmh SSW 16.1 mph25.9 kmh 29.70 in1005.8 mb - 0.20 in5.1 mm 0.20 in5.1 mm
06:09 PM 51.0°F10.6°C 46.6°F8.1°C 85% 10.3 mph SSW16.6 kmh SSW 19.5 mph31.4 kmh 29.71 in1006.1 mb - 0.20 in5.1 mm 0.20 in5.1 mm
06:03 PM 51.0°F10.6°C 46.6°F8.1°C 85% 8.0 mph SSW12.9 kmh SSW 24.1 mph38.8 kmh 29.72 in1006.4 mb - 0.19 in4.8 mm 0.19 in4.8 mm
05:58 PM 51.1°F10.6°C 46.4°F8.0°C 84% 10.3 mph SSW16.6 kmh SSW 19.5 mph31.4 kmh 29.72 in1006.4 mb - 0.18 in4.6 mm 0.18 in4.6 mm
05:52 PM 51.1°F10.6°C 46.4°F8.0°C 84% 11.5 mph SSW18.5 kmh SSW 19.5 mph31.4 kmh 29.72 in1006.4 mb - 0.18 in4.6 mm 0.18 in4.6 mm
05:46 PM 50.8°F10.4°C 46.8°F8.2°C 86% 10.3 mph SW16.6 kmh SW 19.5 mph31.4 kmh 29.72 in1006.4 mb - 0.18 in4.6 mm 0.18 in4.6 mm
05:41 PM 50.8°F10.4°C 46.8°F8.2°C 86% 8.0 mph SSW12.9 kmh SSW 16.1 mph25.9 kmh 29.73 in1006.8 mb - 0.18 in4.6 mm 0.18 in4.6 mm
05:35 PM 50.7°F10.4°C 46.7°F8.2°C 86% 9.2 mph SW14.8 kmh SW 19.5 mph31.4 kmh 29.73 in1006.8 mb - 0.18 in4.6 mm 0.18 in4.6 mm
05:30 PM 50.7°F10.4°C 46.7°F8.2°C 86% 10.3 mph SW16.6 kmh SW 19.5 mph31.4 kmh 29.73 in1006.8 mb - 0.18 in4.6 mm 0.18 in4.6 mm
05:24 PM 50.6°F10.3°C 46.6°F8.1°C 86% 11.5 mph SSW18.5 kmh SSW 20.7 mph33.3 kmh 29.73 in1006.8 mb - 0.17 in4.3 mm 0.17 in4.3 mm
05:18 PM 50.7°F10.4°C 46.6°F8.1°C 86% 4.6 mph SW7.4 kmh SW 16.1 mph25.9 kmh 29.74 in1007.1 mb - 0.17 in4.3 mm 0.17 in4.3 mm
05:13 PM 50.8°F10.4°C 46.8°F8.2°C 86% 2.3 mph SW3.7 kmh SW 11.5 mph18.5 kmh 29.74 in1007.1 mb - 0.17 in4.3 mm 0.17 in4.3 mm
05:07 PM 50.8°F10.4°C 46.8°F8.2°C 86% 8.0 mph SW12.9 kmh SW 11.5 mph18.5 kmh 29.75 in1007.5 mb - 0.17 in4.3 mm 0.17 in4.3 mm
05:01 PM 51.0°F10.6°C 46.6°F8.1°C 85% 1.1 mph SSW1.8 kmh SSW 16.1 mph25.9 kmh 29.75 in1007.5 mb - 0.16 in4.1 mm 0.16 in4.1 mm
04:56 PM 51.1°F10.6°C 46.7°F8.2°C 85% 5.8 mph SSW9.3 kmh SSW 18.4 mph29.6 kmh 29.75 in1007.5 mb - 0.15 in3.8 mm 0.15 in3.8 mm
04:50 PM 51.5°F10.8°C 46.5°F8.1°C 83% 3.4 mph SSW5.5 kmh SSW 14.9 mph24.0 kmh 29.75 in1007.5 mb - 0.14 in3.6 mm 0.14 in3.6 mm
04:45 PM 51.8°F11.0°C 46.5°F8.1°C 82% 8.0 mph SSW12.9 kmh SSW 24.1 mph38.8 kmh 29.75 in1007.5 mb - 0.14 in3.6 mm 0.14 in3.6 mm
04:39 PM 52.0°F11.1°C 46.4°F8.0°C 81% 9.2 mph SSW14.8 kmh SSW 16.1 mph25.9 kmh 29.75 in1007.5 mb - 0.14 in3.6 mm 0.14 in3.6 mm
04:33 PM 52.3°F11.3°C 46.3°F7.9°C 80% 6.9 mph SW11.1 kmh SW 10.3 mph16.6 kmh 29.75 in1007.5 mb - 0.14 in3.6 mm 0.14 in3.6 mm
04:28 PM 52.5°F11.4°C 46.2°F7.9°C 79% 6.9 mph S11.1 kmh S 11.5 mph18.5 kmh 29.76 in1007.8 mb - 0.14 in3.6 mm 0.14 in3.6 mm
04:22 PM 52.9°F11.6°C 46.2°F7.9°C 78% 6.9 mph SSW11.1 kmh SSW 10.3 mph16.6 kmh 29.76 in1007.8 mb - 0.14 in3.6 mm 0.14 in3.6 mm
04:16 PM 53.2°F11.8°C 46.1°F7.8°C 77% 6.9 mph SSW11.1 kmh SSW 26.4 mph42.5 kmh 29.76 in1007.8 mb - 0.14 in3.6 mm 0.14 in3.6 mm
04:11 PM 53.5°F11.9°C 46.1°F7.8°C 76% 6.9 mph SSW11.1 kmh SSW 19.5 mph31.4 kmh 29.76 in1007.8 mb - 0.14 in3.6 mm 0.14 in3.6 mm
04:05 PM 54.0°F12.2°C 45.5°F7.5°C 73% 11.5 mph SSW18.5 kmh SSW 28.7 mph46.2 kmh 29.76 in1007.8 mb - 0.14 in3.6 mm 0.14 in3.6 mm
04:00 PM 54.1°F12.3°C 45.6°F7.6°C 73% 11.5 mph SW18.5 kmh SW 23.0 mph37.0 kmh 29.77 in1008.1 mb - 0.14 in3.6 mm 0.14 in3.6 mm
03:54 PM 54.3°F12.4°C 45.5°F7.5°C 72% 8.0 mph SW12.9 kmh SW 20.7 mph33.3 kmh 29.76 in1007.8 mb - 0.14 in3.6 mm 0.14 in3.6 mm
03:48 PM 54.3°F12.4°C 45.5°F7.5°C 72% 8.0 mph SSW12.9 kmh SSW 19.5 mph31.4 kmh 29.76 in1007.8 mb - 0.14 in3.6 mm 0.14 in3.6 mm
03:43 PM 54.2°F12.3°C 45.4°F7.4°C 72% 13.8 mph SW22.2 kmh SW 23.0 mph37.0 kmh 29.77 in1008.1 mb - 0.14 in3.6 mm 0.14 in3.6 mm
03:37 PM 54.2°F12.3°C 45.4°F7.4°C 72% 14.9 mph SSW24.0 kmh SSW 29.9 mph48.1 kmh 29.77 in1008.1 mb - 0.14 in3.6 mm 0.14 in3.6 mm
03:31 PM 54.3°F12.4°C 45.8°F7.7°C 73% 10.3 mph SW16.6 kmh SW 19.5 mph31.4 kmh 29.77 in1008.1 mb - 0.14 in3.6 mm 0.14 in3.6 mm
03:26 PM 54.3°F12.4°C 45.5°F7.5°C 72% 9.2 mph SSW14.8 kmh SSW 16.1 mph25.9 kmh 29.77 in1008.1 mb - 0.14 in3.6 mm 0.14 in3.6 mm
03:20 PM 54.3°F12.4°C 45.5°F7.5°C 72% 10.3 mph SW16.6 kmh SW 17.3 mph27.8 kmh 29.78 in1008.5 mb - 0.14 in3.6 mm 0.14 in3.6 mm
03:15 PM 54.3°F12.4°C 45.8°F7.7°C 73% 10.3 mph SW16.6 kmh SW 26.4 mph42.5 kmh 29.78 in1008.5 mb - 0.14 in3.6 mm 0.14 in3.6 mm
03:09 PM 54.4°F12.4°C 45.9°F7.7°C 73% 10.3 mph SSW16.6 kmh SSW 21.8 mph35.1 kmh 29.78 in1008.5 mb - 0.14 in3.6 mm 0.14 in3.6 mm
03:03 PM 54.4°F12.4°C 45.9°F7.7°C 73% 11.5 mph SW18.5 kmh SW 16.1 mph25.9 kmh 29.78 in1008.5 mb - 0.14 in3.6 mm 0.14 in3.6 mm
02:58 PM 54.2°F12.3°C 46.4°F8.0°C 75% 11.5 mph S18.5 kmh S 24.1 mph38.8 kmh 29.79 in1008.8 mb - 0.14 in3.6 mm 0.14 in3.6 mm
02:52 PM 54.2°F12.3°C 46.4°F8.0°C 75% 10.3 mph SSW16.6 kmh SSW 24.1 mph38.8 kmh 29.79 in1008.8 mb - 0.14 in3.6 mm 0.14 in3.6 mm
02:46 PM 53.9°F12.2°C 47.5°F8.6°C 79% 10.3 mph SW16.6 kmh SW 19.5 mph31.4 kmh 29.80 in1009.1 mb - 0.14 in3.6 mm 0.14 in3.6 mm
02:41 PM 53.7°F12.1°C 48.3°F9.1°C 82% 9.2 mph SW14.8 kmh SW 19.5 mph31.4 kmh 29.81 in1009.5 mb - 0.14 in3.6 mm 0.14 in3.6 mm
02:35 PM 53.6°F12.0°C 48.6°F9.2°C 83% 11.5 mph SSW18.5 kmh SSW 26.4 mph42.5 kmh 29.81 in1009.5 mb - 0.14 in3.6 mm 0.14 in3.6 mm
02:30 PM 53.5°F11.9°C 48.5°F9.2°C 83% 10.3 mph SSW16.6 kmh SSW 19.5 mph31.4 kmh 29.81 in1009.5 mb - 0.14 in3.6 mm 0.14 in3.6 mm
02:24 PM 53.6°F12.0°C 48.9°F9.4°C 84% 6.9 mph SSW11.1 kmh SSW 18.4 mph29.6 kmh 29.81 in1009.5 mb - 0.14 in3.6 mm 0.14 in3.6 mm
02:18 PM 53.6°F12.0°C 48.9°F9.4°C 84% 8.0 mph SW12.9 kmh SW 14.9 mph24.0 kmh 29.81 in1009.5 mb - 0.14 in3.6 mm 0.14 in3.6 mm
02:13 PM 53.5°F11.9°C 49.1°F9.5°C 85% 9.2 mph SSW14.8 kmh SSW 18.4 mph29.6 kmh 29.82 in1009.8 mb - 0.14 in3.6 mm 0.14 in3.6 mm
02:07 PM 53.4°F11.9°C 49.3°F9.6°C 86% 5.8 mph SSW9.3 kmh SSW 24.1 mph38.8 kmh 29.82 in1009.8 mb - 0.14 in3.6 mm 0.14 in3.6 mm
02:01 PM 52.8°F11.6°C 49.4°F9.7°C 88% 4.6 mph SSW7.4 kmh SSW 10.3 mph16.6 kmh 29.82 in1009.8 mb - 0.14 in3.6 mm 0.14 in3.6 mm
01:56 PM 52.4°F11.3°C 49.3°F9.6°C 89% 6.9 mph SSW11.1 kmh SSW 13.8 mph22.2 kmh 29.83 in1010.2 mb - 0.14 in3.6 mm 0.14 in3.6 mm
01:50 PM 52.4°F11.3°C 49.5°F9.7°C 90% 5.8 mph SSW9.3 kmh SSW 18.4 mph29.6 kmh 29.83 in1010.2 mb - 0.14 in3.6 mm 0.14 in3.6 mm
01:45 PM 52.2°F11.2°C 49.3°F9.6°C 90% 3.4 mph SSW5.5 kmh SSW 14.9 mph24.0 kmh 29.84 in1010.5 mb - 0.14 in3.6 mm 0.14 in3.6 mm
01:39 PM 52.0°F11.1°C 49.2°F9.6°C 90% 5.8 mph SSW9.3 kmh SSW 11.5 mph18.5 kmh 29.84 in1010.5 mb - 0.14 in3.6 mm 0.14 in3.6 mm
01:33 PM 51.9°F11.1°C 49.1°F9.5°C 90% 6.9 mph SSW11.1 kmh SSW 14.9 mph24.0 kmh 29.85 in1010.8 mb - 0.14 in3.6 mm 0.14 in3.6 mm
01:28 PM 51.8°F11.0°C 49.0°F9.4°C 90% 2.3 mph SSW3.7 kmh SSW 11.5 mph18.5 kmh 29.86 in1011.2 mb - 0.13 in3.3 mm 0.13 in3.3 mm
01:22 PM 51.8°F11.0°C 48.9°F9.4°C 90% 6.9 mph SSW11.1 kmh SSW 11.5 mph18.5 kmh 29.86 in1011.2 mb - 0.13 in3.3 mm 0.13 in3.3 mm
01:16 PM 51.5°F10.8°C 48.9°F9.4°C 91% 8.0 mph SW12.9 kmh SW 10.3 mph16.6 kmh 29.87 in1011.5 mb - 0.13 in3.3 mm 0.13 in3.3 mm
01:11 PM 51.3°F10.7°C 48.7°F9.3°C 91% 5.8 mph SSW9.3 kmh SSW 11.5 mph18.5 kmh 29.88 in1011.9 mb - 0.13 in3.3 mm 0.13 in3.3 mm
01:05 PM 51.1°F10.6°C 48.6°F9.2°C 91% Calm Calm 1.1 mph1.8 kmh 29.88 in1011.9 mb - 0.13 in3.3 mm 0.13 in3.3 mm
01:00 PM 51.1°F10.6°C 48.5°F9.2°C 91% Calm Calm -- 29.88 in1011.9 mb - 0.13 in3.3 mm 0.13 in3.3 mm
12:54 PM 50.6°F10.3°C 48.1°F8.9°C 91% 4.6 mph SW7.4 kmh SW 11.5 mph18.5 kmh 29.89 in1012.2 mb - 0.13 in3.3 mm 0.13 in3.3 mm
12:48 PM 50.3°F10.2°C 47.5°F8.6°C 90% 2.3 mph SW3.7 kmh SW 14.9 mph24.0 kmh 29.89 in1012.2 mb - 0.13 in3.3 mm 0.13 in3.3 mm
12:43 PM 50.1°F10.1°C 47.2°F8.4°C 90% 1.1 mph SSW1.8 kmh SSW 8.0 mph12.9 kmh 29.90 in1012.5 mb - 0.09 in2.3 mm 0.09 in2.3 mm
12:37 PM 49.9°F9.9°C 47.3°F8.5°C 91% 2.3 mph SSW3.7 kmh SSW 3.4 mph5.5 kmh 29.90 in1012.5 mb - 0.09 in2.3 mm 0.09 in2.3 mm
12:31 PM 49.5°F9.7°C 46.7°F8.2°C 90% Calm Calm -- 29.90 in1012.5 mb - 0.09 in2.3 mm 0.09 in2.3 mm
12:26 PM 49.4°F9.7°C 46.9°F8.3°C 91% 2.3 mph S3.7 kmh S 6.9 mph11.1 kmh 29.90 in1012.5 mb - 0.09 in2.3 mm 0.09 in2.3 mm
12:20 PM 49.0°F9.4°C 46.2°F7.9°C 90% 4.6 mph SSW7.4 kmh SSW 9.2 mph14.8 kmh 29.91 in1012.9 mb - 0.09 in2.3 mm 0.09 in2.3 mm
12:15 PM 48.9°F9.4°C 46.1°F7.8°C 90% 8.0 mph SSW12.9 kmh SSW 11.5 mph18.5 kmh 29.91 in1012.9 mb - 0.09 in2.3 mm 0.09 in2.3 mm
12:09 PM 48.4°F9.1°C 45.6°F7.6°C 90% 2.3 mph SSW3.7 kmh SSW 10.3 mph16.6 kmh 29.92 in1013.2 mb - 0.09 in2.3 mm 0.09 in2.3 mm
12:03 PM 48.3°F9.1°C 45.5°F7.5°C 90% 4.6 mph SW7.4 kmh SW 9.2 mph14.8 kmh 29.92 in1013.2 mb - 0.09 in2.3 mm 0.09 in2.3 mm
11:58 AM 47.8°F8.8°C 45.0°F7.2°C 90% 4.6 mph S7.4 kmh S 11.5 mph18.5 kmh 29.92 in1013.2 mb - 0.09 in2.3 mm 0.09 in2.3 mm
11:52 AM 47.5°F8.6°C 44.7°F7.1°C 90% 6.9 mph S11.1 kmh S 11.5 mph18.5 kmh 29.93 in1013.5 mb - 0.09 in2.3 mm 0.09 in2.3 mm
11:46 AM 47.2°F8.4°C 44.4°F6.9°C 90% 5.8 mph S9.3 kmh S 11.5 mph18.5 kmh 29.93 in1013.5 mb - 0.09 in2.3 mm 0.09 in2.3 mm
11:41 AM 46.9°F8.3°C 44.2°F6.8°C 90% 3.4 mph SSW5.5 kmh SSW 5.8 mph9.3 kmh 29.94 in1013.9 mb - 0.09 in2.3 mm 0.09 in2.3 mm
11:35 AM 46.4°F8.0°C 43.6°F6.4°C 90% 5.8 mph SSW9.3 kmh SSW 11.5 mph18.5 kmh 29.94 in1013.9 mb - 0.09 in2.3 mm 0.09 in2.3 mm
11:30 AM 46.1°F7.8°C 43.4°F6.3°C 90% 5.8 mph SSW9.3 kmh SSW 10.3 mph16.6 kmh 29.94 in1013.9 mb - 0.09 in2.3 mm 0.09 in2.3 mm
11:24 AM 45.7°F7.6°C 42.9°F6.1°C 90% 3.4 mph S5.5 kmh S 6.9 mph11.1 kmh 29.94 in1013.9 mb - 0.09 in2.3 mm 0.09 in2.3 mm
11:18 AM 45.3°F7.4°C 42.5°F5.8°C 90% 5.8 mph S9.3 kmh S 9.2 mph14.8 kmh 29.94 in1013.9 mb - 0.09 in2.3 mm 0.09 in2.3 mm
11:13 AM 44.4°F6.9°C 41.7°F5.4°C 90% 6.9 mph S11.1 kmh S 11.5 mph18.5 kmh 29.94 in1013.9 mb - 0.09 in2.3 mm 0.09 in2.3 mm
11:07 AM 44.3°F6.8°C 41.6°F5.3°C 90% 5.8 mph S9.3 kmh S 11.5 mph18.5 kmh 29.94 in1013.9 mb - 0.09 in2.3 mm 0.09 in2.3 mm
11:01 AM 43.6°F6.4°C 40.8°F4.9°C 90% 5.8 mph S9.3 kmh S 8.0 mph12.9 kmh 29.95 in1014.2 mb - 0.09 in2.3 mm 0.09 in2.3 mm
10:56 AM 43.3°F6.3°C 40.3°F4.6°C 89% 4.6 mph S7.4 kmh S 8.0 mph12.9 kmh 29.96 in1014.6 mb - 0.09 in2.3 mm 0.09 in2.3 mm
10:50 AM 43.0°F6.1°C 40.0°F4.4°C 89% 4.6 mph S7.4 kmh S 8.0 mph12.9 kmh 29.96 in1014.6 mb - 0.09 in2.3 mm 0.09 in2.3 mm
10:45 AM 42.9°F6.1°C 39.9°F4.4°C 89% 4.6 mph S7.4 kmh S 10.3 mph16.6 kmh 29.97 in1014.9 mb - 0.09 in2.3 mm 0.09 in2.3 mm
10:39 AM 42.7°F5.9°C 39.7°F4.3°C 89% 1.1 mph S1.8 kmh S 10.3 mph16.6 kmh 29.97 in1014.9 mb - 0.09 in2.3 mm 0.09 in2.3 mm
10:33 AM 42.6°F5.9°C 39.6°F4.2°C 89% 2.3 mph S3.7 kmh S 2.3 mph3.7 kmh 29.97 in1014.9 mb - 0.09 in2.3 mm 0.09 in2.3 mm
10:28 AM 42.4°F5.8°C 39.4°F4.1°C 89% 1.1 mph S1.8 kmh S -- 29.99 in1015.6 mb - 0.09 in2.3 mm 0.09 in2.3 mm
10:22 AM 42.4°F5.8°C 39.4°F4.1°C 89% 4.6 mph S7.4 kmh S 8.0 mph12.9 kmh 29.99 in1015.6 mb - 0.09 in2.3 mm 0.09 in2.3 mm
10:16 AM 42.3°F5.7°C 39.2°F4.0°C 89% 4.6 mph S7.4 kmh S 9.2 mph14.8 kmh 30.00 in1015.9 mb - 0.09 in2.3 mm 0.09 in2.3 mm
10:11 AM 42.2°F5.7°C 39.2°F4.0°C 89% 4.6 mph S7.4 kmh S 11.5 mph18.5 kmh 30.00 in1015.9 mb - 0.09 in2.3 mm 0.09 in2.3 mm
10:05 AM 42.1°F5.6°C 38.8°F3.8°C 88% 4.6 mph S7.4 kmh S 11.5 mph18.5 kmh 30.01 in1016.3 mb - 0.09 in2.3 mm 0.09 in2.3 mm
10:00 AM 42.1°F5.6°C 38.8°F3.8°C 88% 5.8 mph SSE9.3 kmh SSE 9.2 mph14.8 kmh 30.01 in1016.3 mb - 0.09 in2.3 mm 0.09 in2.3 mm
09:54 AM 41.9°F5.5°C 38.6°F3.7°C 88% 5.8 mph SSE9.3 kmh SSE 8.0 mph12.9 kmh 30.03 in1016.9 mb - 0.09 in2.3 mm 0.09 in2.3 mm
09:48 AM 41.8°F5.4°C 38.5°F3.6°C 88% Calm Calm 8.0 mph12.9 kmh 30.04 in1017.3 mb - 0.09 in2.3 mm 0.09 in2.3 mm
09:43 AM 41.8°F5.4°C 38.5°F3.6°C 88% 3.4 mph SSE5.5 kmh SSE 9.2 mph14.8 kmh 30.04 in1017.3 mb - 0.09 in2.3 mm 0.09 in2.3 mm
09:37 AM 41.8°F5.4°C 38.5°F3.6°C 88% 3.4 mph SSE5.5 kmh SSE 11.5 mph18.5 kmh 30.04 in1017.3 mb - 0.09 in2.3 mm 0.09 in2.3 mm
09:31 AM 41.7°F5.4°C 38.7°F3.7°C 89% 4.6 mph S7.4 kmh S 11.5 mph18.5 kmh 30.05 in1017.6 mb - 0.09 in2.3 mm 0.09 in2.3 mm
09:26 AM 41.7°F5.4°C 38.4°F3.6°C 88% 4.6 mph SSE7.4 kmh SSE 6.9 mph11.1 kmh 30.05 in1017.6 mb - 0.08 in2.0 mm 0.08 in2.0 mm
09:20 AM 41.7°F5.4°C 38.1°F3.4°C 87% 4.6 mph SSE7.4 kmh SSE 8.0 mph12.9 kmh 30.06 in1017.9 mb - 0.08 in2.0 mm 0.08 in2.0 mm
09:15 AM 41.7°F5.4°C 38.1°F3.4°C 87% Calm Calm -- 30.07 in1018.3 mb - 0.08 in2.0 mm 0.08 in2.0 mm
09:09 AM 41.6°F5.3°C 37.7°F3.2°C 86% Calm Calm -- 30.08 in1018.6 mb - 0.07 in1.8 mm 0.07 in1.8 mm
09:03 AM 41.6°F5.3°C 37.7°F3.2°C 86% Calm Calm -- 30.08 in1018.6 mb - 0.06 in1.5 mm 0.06 in1.5 mm
08:58 AM 41.6°F5.3°C 37.7°F3.2°C 86% 2.3 mph S3.7 kmh S 3.4 mph5.5 kmh 30.09 in1019.0 mb - 0.06 in1.5 mm 0.06 in1.5 mm
08:52 AM 41.6°F5.3°C 37.4°F3.0°C 85% 4.6 mph SSE7.4 kmh SSE 8.0 mph12.9 kmh 30.10 in1019.3 mb - 0.06 in1.5 mm 0.06 in1.5 mm
08:46 AM 41.6°F5.3°C 37.1°F2.8°C 84% 1.1 mph SSE1.8 kmh SSE 9.2 mph14.8 kmh 30.10 in1019.3 mb - 0.06 in1.5 mm 0.06 in1.5 mm
08:41 AM 41.6°F5.3°C 37.1°F2.8°C 84% Calm Calm -- 30.10 in1019.3 mb - 0.06 in1.5 mm 0.06 in1.5 mm
08:35 AM 41.6°F5.3°C 36.8°F2.7°C 83% 4.6 mph S7.4 kmh S 11.5 mph18.5 kmh 30.10 in1019.3 mb - 0.06 in1.5 mm 0.06 in1.5 mm
08:30 AM 41.7°F5.4°C 36.9°F2.7°C 83% 5.8 mph S9.3 kmh S 10.3 mph16.6 kmh 30.10 in1019.3 mb - 0.05 in1.3 mm 0.05 in1.3 mm
08:24 AM 42.0°F5.6°C 36.6°F2.6°C 81% 4.6 mph S7.4 kmh S 11.5 mph18.5 kmh 30.11 in1019.6 mb - 0.05 in1.3 mm 0.05 in1.3 mm
08:18 AM 42.1°F5.6°C 36.6°F2.6°C 81% 3.4 mph S5.5 kmh S 10.3 mph16.6 kmh 30.11 in1019.6 mb - 0.05 in1.3 mm 0.05 in1.3 mm
08:13 AM 42.6°F5.9°C 36.5°F2.5°C 79% Calm Calm -- 30.12 in1020.0 mb - 0.03 in0.8 mm 0.03 in0.8 mm
08:07 AM 42.8°F6.0°C 36.4°F2.4°C 78% 4.6 mph S7.4 kmh S 9.2 mph14.8 kmh 30.12 in1020.0 mb - 0.02 in0.5 mm 0.02 in0.5 mm
08:01 AM 43.2°F6.2°C 36.1°F2.3°C 76% 5.8 mph S9.3 kmh S 14.9 mph24.0 kmh 30.12 in1020.0 mb - 0.02 in0.5 mm 0.02 in0.5 mm
07:56 AM 43.6°F6.4°C 35.9°F2.2°C 74% 5.8 mph S9.3 kmh S 10.3 mph16.6 kmh 30.13 in1020.3 mb - 0.02 in0.5 mm 0.02 in0.5 mm
07:50 AM 43.9°F6.6°C 35.8°F2.1°C 73% 5.8 mph S9.3 kmh S 8.0 mph12.9 kmh 30.13 in1020.3 mb - 0.01 in0.3 mm 0.01 in0.3 mm
07:45 AM 44.1°F6.7°C 35.6°F2.0°C 72% 5.8 mph S9.3 kmh S 9.2 mph14.8 kmh 30.13 in1020.3 mb - 0.01 in0.3 mm 0.01 in0.3 mm
07:39 AM 44.2°F6.8°C 35.4°F1.9°C 71% 5.8 mph S9.3 kmh S 10.3 mph16.6 kmh 30.14 in1020.7 mb - 0.00 in0.0 mm 0.00 in0.0 mm
07:33 AM 44.2°F6.8°C 35.4°F1.9°C 71% 5.8 mph S9.3 kmh S 8.0 mph12.9 kmh 30.14 in1020.7 mb - 0.00 in0.0 mm 0.00 in0.0 mm
07:28 AM 44.3°F6.8°C 35.1°F1.7°C 70% Calm Calm -- 30.14 in1020.7 mb - 0.00 in0.0 mm 0.00 in0.0 mm
07:22 AM 44.3°F6.8°C 35.1°F1.7°C 70% Calm Calm -- 30.14 in1020.7 mb - 0.00 in0.0 mm 0.00 in0.0 mm
07:16 AM 44.3°F6.8°C 35.1°F1.7°C 70% 3.4 mph S5.5 kmh S 3.4 mph5.5 kmh 30.15 in1021.0 mb - 0.00 in0.0 mm 0.00 in0.0 mm
07:11 AM 44.3°F6.8°C 35.1°F1.7°C 70% 4.6 mph S7.4 kmh S 8.0 mph12.9 kmh 30.15 in1021.0 mb - 0.00 in0.0 mm 0.00 in0.0 mm
07:05 AM 44.2°F6.8°C 34.7°F1.5°C 69% Calm Calm -- 30.17 in1021.7 mb - 0.00 in0.0 mm 0.00 in0.0 mm
07:00 AM 44.2°F6.8°C 34.6°F1.4°C 69% Calm Calm -- 30.17 in1021.7 mb - 0.00 in0.0 mm 0.00 in0.0 mm
06:54 AM 44.1°F6.7°C 34.9°F1.6°C 70% Calm Calm -- 30.18 in1022.0 mb - 0.00 in0.0 mm 0.00 in0.0 mm
06:48 AM 44.0°F6.7°C 34.8°F1.6°C 70% 1.1 mph S1.8 kmh S 2.3 mph3.7 kmh 30.18 in1022.0 mb - 0.00 in0.0 mm 0.00 in0.0 mm
06:43 AM 43.9°F6.6°C 34.7°F1.5°C 70% 3.4 mph S5.5 kmh S 4.6 mph7.4 kmh 30.18 in1022.0 mb - 0.00 in0.0 mm 0.00 in0.0 mm
06:37 AM 43.9°F6.6°C 34.7°F1.5°C 70% 2.3 mph S3.7 kmh S 5.8 mph9.3 kmh 30.18 in1022.0 mb - 0.00 in0.0 mm 0.00 in0.0 mm
06:31 AM 43.7°F6.5°C 34.6°F1.4°C 70% 1.1 mph SSW1.8 kmh SSW 3.4 mph5.5 kmh 30.18 in1022.0 mb - 0.00 in0.0 mm 0.00 in0.0 mm
06:26 AM 43.6°F6.4°C 34.8°F1.6°C 71% 3.4 mph SSW5.5 kmh SSW 4.6 mph7.4 kmh 30.19 in1022.4 mb - 0.00 in0.0 mm 0.00 in0.0 mm
06:20 AM 43.6°F6.4°C 34.8°F1.6°C 71% 3.4 mph SSW5.5 kmh SSW 3.4 mph5.5 kmh 30.19 in1022.4 mb - 0.00 in0.0 mm 0.00 in0.0 mm
06:15 AM 43.6°F6.4°C 35.1°F1.7°C 72% 2.3 mph S3.7 kmh S 3.4 mph5.5 kmh 30.20 in1022.7 mb - 0.00 in0.0 mm 0.00 in0.0 mm
06:09 AM 43.6°F6.4°C 35.5°F1.9°C 73% Calm Calm -- 30.20 in1022.7 mb - 0.00 in0.0 mm 0.00 in0.0 mm
06:03 AM 43.6°F6.4°C 35.5°F1.9°C 73% Calm Calm -- 30.20 in1022.7 mb - 0.00 in0.0 mm 0.00 in0.0 mm
05:58 AM 43.6°F6.4°C 35.5°F1.9°C 73% Calm Calm -- 30.20 in1022.7 mb - 0.00 in0.0 mm 0.00 in0.0 mm
05:52 AM 43.6°F6.4°C 35.5°F1.9°C 73% Calm Calm -- 30.20 in1022.7 mb - 0.00 in0.0 mm 0.00 in0.0 mm
05:46 AM 43.6°F6.4°C 35.5°F1.9°C 73% Calm Calm -- 30.20 in1022.7 mb - 0.00 in0.0 mm 0.00 in0.0 mm
05:41 AM 43.6°F6.4°C 35.5°F1.9°C 73% Calm Calm -- 30.20 in1022.7 mb - 0.00 in0.0 mm 0.00 in0.0 mm
05:35 AM 43.6°F6.4°C 35.2°F1.8°C 72% Calm Calm -- 30.21 in1023.0 mb - 0.00 in0.0 mm 0.00 in0.0 mm
05:30 AM 43.6°F6.4°C 35.5°F1.9°C 73% Calm Calm -- 30.21 in1023.0 mb - 0.00 in0.0 mm 0.00 in0.0 mm
05:24 AM 43.6°F6.4°C 35.5°F1.9°C 73% Calm Calm -- 30.22 in1023.4 mb - 0.00 in0.0 mm 0.00 in0.0 mm
05:18 AM 43.5°F6.4°C 35.4°F1.9°C 73% Calm Calm -- 30.22 in1023.4 mb - 0.00 in0.0 mm 0.00 in0.0 mm
05:13 AM 43.4°F6.3°C 35.3°F1.8°C 73% Calm Calm -- 30.23 in1023.7 mb - 0.00 in0.0 mm 0.00 in0.0 mm
05:07 AM 43.4°F6.3°C 35.3°F1.8°C 73% Calm Calm -- 30.22 in1023.4 mb - 0.00 in0.0 mm 0.00 in0.0 mm
05:01 AM 43.4°F6.3°C 35.3°F1.8°C 73% Calm Calm -- 30.23 in1023.7 mb - 0.00 in0.0 mm 0.00 in0.0 mm
04:56 AM 43.4°F6.3°C 35.3°F1.8°C 73% Calm Calm -- 30.23 in1023.7 mb - 0.00 in0.0 mm 0.00 in0.0 mm
04:50 AM 43.5°F6.4°C 35.4°F1.9°C 73% Calm Calm -- 30.23 in1023.7 mb - 0.00 in0.0 mm 0.00 in0.0 mm
04:45 AM 43.5°F6.4°C 35.4°F1.9°C 73% Calm Calm -- 30.23 in1023.7 mb - 0.00 in0.0 mm 0.00 in0.0 mm
04:39 AM 43.5°F6.4°C 35.1°F1.7°C 72% Calm Calm -- 30.24 in1024.0 mb - 0.00 in0.0 mm 0.00 in0.0 mm
04:33 AM 43.5°F6.4°C 35.1°F1.7°C 72% Calm Calm -- 30.24 in1024.0 mb - 0.00 in0.0 mm 0.00 in0.0 mm
04:28 AM 43.5°F6.4°C 35.0°F1.7°C 72% Calm Calm -- 30.23 in1023.7 mb - 0.00 in0.0 mm 0.00 in0.0 mm
04:22 AM 43.4°F6.3°C 35.0°F1.7°C 72% Calm Calm -- 30.24 in1024.0 mb - 0.00 in0.0 mm 0.00 in0.0 mm
04:16 AM 43.4°F6.3°C 35.3°F1.8°C 73% 2.3 mph SSW3.7 kmh SSW 5.8 mph9.3 kmh 30.25 in1024.4 mb - 0.00 in0.0 mm 0.00 in0.0 mm
04:11 AM 43.4°F6.3°C 35.4°F1.9°C 73% 2.3 mph SSW3.7 kmh SSW 3.4 mph5.5 kmh 30.25 in1024.4 mb - 0.00 in0.0 mm 0.00 in0.0 mm
04:05 AM 43.6°F6.4°C 35.2°F1.8°C 72% Calm Calm 3.4 mph5.5 kmh 30.25 in1024.4 mb - 0.00 in0.0 mm 0.00 in0.0 mm
04:00 AM 43.6°F6.4°C 35.2°F1.8°C 72% Calm Calm -- 30.26 in1024.7 mb - 0.00 in0.0 mm 0.00 in0.0 mm
03:54 AM 43.7°F6.5°C 35.3°F1.8°C 72% Calm Calm -- 30.26 in1024.7 mb - 0.00 in0.0 mm 0.00 in0.0 mm
03:48 AM 43.7°F6.5°C 35.3°F1.8°C 72% Calm Calm -- 30.26 in1024.7 mb - 0.00 in0.0 mm 0.00 in0.0 mm
03:43 AM 43.6°F6.4°C 35.2°F1.8°C 72% 2.3 mph SSW3.7 kmh SSW 3.4 mph5.5 kmh 30.26 in1024.7 mb - 0.00 in0.0 mm 0.00 in0.0 mm
03:37 AM 43.6°F6.4°C 35.2°F1.8°C 72% 3.4 mph SSW5.5 kmh SSW 4.6 mph7.4 kmh 30.26 in1024.7 mb - 0.00 in0.0 mm 0.00 in0.0 mm
03:31 AM 43.5°F6.4°C 35.1°F1.7°C 72% 2.3 mph SSW3.7 kmh SSW 3.4 mph5.5 kmh 30.26 in1024.7 mb - 0.00 in0.0 mm 0.00 in0.0 mm
03:26 AM 43.5°F6.4°C 35.0°F1.7°C 72% 2.3 mph SSW3.7 kmh SSW 3.4 mph5.5 kmh 30.26 in1024.7 mb - 0.00 in0.0 mm 0.00 in0.0 mm
03:20 AM 43.4°F6.3°C 35.0°F1.7°C 72% 3.4 mph SSW5.5 kmh SSW 4.6 mph7.4 kmh 30.27 in1025.1 mb - 0.00 in0.0 mm 0.00 in0.0 mm
03:15 AM 43.3°F6.3°C 34.9°F1.6°C 72% 2.3 mph SW3.7 kmh SW 3.4 mph5.5 kmh 30.26 in1024.7 mb - 0.00 in0.0 mm 0.00 in0.0 mm
03:09 AM 43.3°F6.3°C 34.9°F1.6°C 72% 1.1 mph W1.8 kmh W 4.6 mph7.4 kmh 30.27 in1025.1 mb - 0.00 in0.0 mm 0.00 in0.0 mm
03:03 AM 43.2°F6.2°C 34.8°F1.6°C 72% Calm Calm 1.1 mph1.8 kmh 30.27 in1025.1 mb - 0.00 in0.0 mm 0.00 in0.0 mm
02:58 AM 43.2°F6.2°C 34.8°F1.6°C 72% 1.1 mph WNW1.8 kmh WNW 2.3 mph3.7 kmh 30.27 in1025.1 mb - 0.00 in0.0 mm 0.00 in0.0 mm
02:52 AM 43.1°F6.2°C 34.7°F1.5°C 72% 2.3 mph WNW3.7 kmh WNW 3.4 mph5.5 kmh 30.27 in1025.1 mb - 0.00 in0.0 mm 0.00 in0.0 mm
02:46 AM 43.0°F6.1°C 34.6°F1.4°C 72% 1.1 mph WNW1.8 kmh WNW 2.3 mph3.7 kmh 30.28 in1025.4 mb - 0.00 in0.0 mm 0.00 in0.0 mm
02:41 AM 42.9°F6.1°C 34.5°F1.4°C 72% Calm Calm 2.3 mph3.7 kmh 30.27 in1025.1 mb - 0.00 in0.0 mm 0.00 in0.0 mm
02:35 AM 42.9°F6.1°C 34.5°F1.4°C 72% Calm Calm -- 30.28 in1025.4 mb - 0.00 in0.0 mm 0.00 in0.0 mm
02:30 AM 42.9°F6.1°C 34.5°F1.4°C 72% Calm Calm -- 30.28 in1025.4 mb - 0.00 in0.0 mm 0.00 in0.0 mm
02:24 AM 43.0°F6.1°C 34.6°F1.4°C 72% Calm Calm -- 30.28 in1025.4 mb - 0.00 in0.0 mm 0.00 in0.0 mm
02:18 AM 43.0°F6.1°C 34.6°F1.4°C 72% Calm Calm -- 30.28 in1025.4 mb - 0.00 in0.0 mm 0.00 in0.0 mm
02:13 AM 43.1°F6.2°C 34.7°F1.5°C 72% Calm Calm -- 30.27 in1025.1 mb - 0.00 in0.0 mm 0.00 in0.0 mm
02:07 AM 43.1°F6.2°C 34.7°F1.5°C 72% Calm Calm -- 30.27 in1025.1 mb - 0.00 in0.0 mm 0.00 in0.0 mm
02:01 AM 43.1°F6.2°C 34.7°F1.5°C 72% Calm Calm -- 30.28 in1025.4 mb - 0.00 in0.0 mm 0.00 in0.0 mm
01:56 AM 43.2°F6.2°C 34.4°F1.3°C 71% Calm Calm -- 30.28 in1025.4 mb - 0.00 in0.0 mm 0.00 in0.0 mm
01:50 AM 43.2°F6.2°C 34.4°F1.3°C 71% Calm Calm -- 30.28 in1025.4 mb - 0.00 in0.0 mm 0.00 in0.0 mm
01:45 AM 43.3°F6.3°C 34.5°F1.4°C 71% Calm Calm -- 30.28 in1025.4 mb - 0.00 in0.0 mm 0.00 in0.0 mm
01:39 AM 43.5°F6.4°C 34.3°F1.3°C 70% Calm Calm -- 30.27 in1025.1 mb - 0.00 in0.0 mm 0.00 in0.0 mm
01:33 AM 43.6°F6.4°C 34.5°F1.4°C 70% Calm Calm -- 30.27 in1025.1 mb - 0.00 in0.0 mm 0.00 in0.0 mm
01:28 AM 43.7°F6.5°C 34.6°F1.4°C 70% Calm Calm -- 30.27 in1025.1 mb - 0.00 in0.0 mm 0.00 in0.0 mm
01:22 AM 43.7°F6.5°C 34.6°F1.4°C 70% Calm Calm -- 30.27 in1025.1 mb - 0.00 in0.0 mm 0.00 in0.0 mm
01:16 AM 43.8°F6.6°C 34.6°F1.4°C 70% Calm Calm -- 30.27 in1025.1 mb - 0.00 in0.0 mm 0.00 in0.0 mm
01:11 AM 43.9°F6.6°C 34.7°F1.5°C 70% Calm Calm -- 30.27 in1025.1 mb - 0.00 in0.0 mm 0.00 in0.0 mm
01:05 AM 44.0°F6.7°C 34.5°F1.4°C 69% Calm Calm -- 30.27 in1025.1 mb - 0.00 in0.0 mm 0.00 in0.0 mm
01:00 AM 44.0°F6.7°C 34.5°F1.4°C 69% Calm Calm -- 30.27 in1025.1 mb - 0.00 in0.0 mm 0.00 in0.0 mm
12:54 AM 44.1°F6.7°C 34.5°F1.4°C 69% Calm Calm -- 30.27 in1025.1 mb - 0.00 in0.0 mm 0.00 in0.0 mm
12:48 AM 44.1°F6.7°C 34.6°F1.4°C 69% Calm Calm -- 30.27 in1025.1 mb - 0.00 in0.0 mm 0.00 in0.0 mm
12:43 AM 44.1°F6.7°C 34.6°F1.4°C 69% 1.1 mph NW1.8 kmh NW 3.4 mph5.5 kmh 30.27 in1025.1 mb - 0.00 in0.0 mm 0.00 in0.0 mm
12:37 AM 44.1°F6.7°C 34.6°F1.4°C 69% Calm Calm 1.1 mph1.8 kmh 30.27 in1025.1 mb - 0.00 in0.0 mm 0.00 in0.0 mm
12:31 AM 44.2°F6.8°C 34.6°F1.4°C 69% Calm Calm -- 30.27 in1025.1 mb - 0.00 in0.0 mm 0.00 in0.0 mm
12:26 AM 44.2°F6.8°C 34.7°F1.5°C 69% Calm Calm -- 30.27 in1025.1 mb - 0.00 in0.0 mm 0.00 in0.0 mm
12:20 AM 44.3°F6.8°C 34.8°F1.6°C 69% Calm Calm -- 30.26 in1024.7 mb - 0.00 in0.0 mm 0.00 in0.0 mm
12:15 AM 44.4°F6.9°C 34.5°F1.4°C 68% Calm Calm -- 30.27 in1025.1 mb - 0.00 in0.0 mm 0.00 in0.0 mm
12:09 AM 44.5°F6.9°C 34.6°F1.4°C 68% Calm Calm -- 30.27 in1025.1 mb - 0.00 in0.0 mm 0.00 in0.0 mm
12:03 AM 44.6°F7.0°C 34.7°F1.5°C 68% Calm Calm -- 30.26 in1024.7 mb - 0.00 in0.0 mm 0.00 in0.0 mm